Time;durP1;ratioP1;P1;durP2;ratioP2;P2;SDS_P1;SDS_P2;PMS_P1;PMS_P2;Temp;Humidity;BMP_temperature;BMP_pressure;BME280_temperature;BME280_humidity;BME280_pressure;Samples;Min_cycle;Max_cycle;Signal;HPM_P1;HPM_P2
2022/04/14 00:00:56;;;;;;;8.85;2.50;;;;;;;7.13;68.66;100741.81;1760755;80;21744;-52
2022/04/14 00:03:23;;;;;;;6.67;2.62;;;;;;;7.11;68.75;100743.25;1749985;80;21575;-52
2022/04/14 00:05:51;;;;;;;8.80;3.65;;;;;;;7.14;68.71;100736.97;1747068;80;21121;-52
2022/04/14 00:08:18;;;;;;;6.03;1.98;;;;;;;7.16;68.81;100733.34;1766089;80;21541;-52
2022/04/14 00:10:46;;;;;;;6.12;2.27;;;;;;;7.14;68.65;100732.56;1751090;80;21593;-52
2022/04/14 00:13:14;;;;;;;8.98;2.98;;;;;;;7.11;68.78;100735.39;1745808;80;21611;-52
2022/04/14 00:15:42;;;;;;;7.67;2.27;;;;;;;7.02;68.89;100734.14;1738043;82;21548;-52
2022/04/14 00:18:08;;;;;;;7.05;2.22;;;;;;;7.10;68.79;100736.31;1748125;80;20973;-52
2022/04/14 00:20:35;;;;;;;5.67;2.02;;;;;;;7.15;68.76;100736.05;1747826;80;21116;-52
2022/04/14 00:23:01;;;;;;;9.30;2.70;;;;;;;7.14;68.59;100732.56;1750153;80;21148;-53
2022/04/14 00:25:30;;;;;;;5.20;1.80;;;;;;;7.07;68.38;100739.11;1753096;80;21087;-52
2022/04/14 00:27:58;;;;;;;5.80;1.92;;;;;;;7.11;68.43;100738.02;1753762;80;21068;-53
2022/04/14 00:30:25;;;;;;;5.42;2.17;;;;;;;7.13;68.36;100736.14;1758512;81;21057;-52
2022/04/14 00:32:51;;;;;;;7.75;2.40;;;;;;;7.15;68.22;100737.36;1757889;80;21072;-53
2022/04/14 00:35:18;;;;;;;8.85;2.85;;;;;;;7.16;68.08;100736.41;1764633;81;21247;-52
2022/04/14 00:37:45;;;;;;;5.35;1.87;;;;;;;7.14;68.09;100736.49;1763547;80;21508;-52
2022/04/14 00:40:13;;;;;;;8.20;2.50;;;;;;;7.15;68.10;100744.73;1761932;80;21016;-52
2022/04/14 00:42:39;;;;;;;7.28;2.25;;;;;;;7.16;67.89;100740.33;1758015;81;21029;-52
2022/04/14 00:45:09;;;;;;;7.55;2.37;;;;;;;7.23;67.66;100744.28;1755211;80;22011;-53
2022/04/14 00:47:37;;;;;;;4.60;1.70;;;;;;;7.27;67.41;100744.94;1763763;81;21059;-53
2022/04/14 00:50:05;;;;;;;4.90;2.30;;;;;;;7.22;67.03;100743.42;1756895;80;21072;-52
2022/04/14 00:52:33;;;;;;;6.20;1.77;;;;;;;7.17;66.99;100741.55;1757306;80;21019;-52
2022/04/14 00:54:59;;;;;;;5.20;1.60;;;;;;;7.14;67.13;100745.66;1758380;81;21053;-52
2022/04/14 00:57:26;;;;;;;5.15;1.50;;;;;;;7.13;67.07;100750.53;1747766;80;21536;-53
2022/04/14 00:59:52;;;;;;;4.67;1.42;;;;;;;7.13;66.93;100745.74;1767286;81;21159;-52
2022/04/14 01:02:20;;;;;;;4.10;1.75;;;;;;;7.12;66.95;100750.14;1754824;80;21019;-52
2022/04/14 01:04:47;;;;;;;4.03;1.30;;;;;;;7.06;67.01;100743.52;1764768;81;21062;-53
2022/04/14 01:07:15;;;;;;;4.90;1.40;;;;;;;7.02;66.88;100747.23;1761701;81;21146;-52
2022/04/14 01:09:43;;;;;;;4.20;1.52;;;;;;;7.02;66.77;100738.55;1726345;81;21075;-52
2022/04/14 01:12:10;;;;;;;5.05;1.27;;;;;;;7.02;66.77;100738.55;1757629;80;22188;-53
2022/04/14 01:14:39;;;;;;;2.75;0.93;;;;;;;6.99;66.67;100734.35;1758432;80;21072;-52
2022/04/14 01:17:08;;;;;;;5.08;1.20;;;;;;;6.96;66.71;100741.07;1757297;80;21055;-52
2022/04/14 01:19:37;;;;;;;3.62;1.00;;;;;;;6.96;66.71;100744.12;1759083;80;21508;-53
2022/04/14 01:22:26;;;;;;;4.87;1.30;;;;;;;6.98;66.51;100733.13;1761288;80;21745;-52
2022/04/14 01:24:55;;;;;;;3.77;1.20;;;;;;;6.97;66.44;100744.05;1765818;81;21248;-53
2022/04/14 01:27:24;;;;;;;3.08;0.80;;;;;;;6.94;66.40;100746.00;1764519;81;21023;-52
2022/04/14 01:29:55;;;;;;;2.08;0.70;;;;;;;6.92;66.37;100742.16;1757495;80;21063;-52
2022/04/14 01:32:23;;;;;;;2.52;0.68;;;;;;;6.95;66.35;100742.47;1750486;81;21084;-53
2022/04/14 01:34:50;;;;;;;3.05;0.82;;;;;;;6.97;65.95;100745.83;1761073;80;21074;-53
2022/04/14 01:37:19;;;;;;;3.60;0.88;;;;;;;6.99;65.73;100744.81;1754248;81;21111;-52
2022/04/14 01:39:46;;;;;;;4.53;1.12;;;;;;;7.00;65.79;100749.58;1765554;80;21043;-52
2022/04/14 01:42:13;;;;;;;3.77;1.17;;;;;;;6.98;65.60;100755.37;1761091;81;21079;-53
2022/04/14 01:44:41;;;;;;;2.83;0.68;;;;;;;7.01;65.55;100756.47;1756989;80;21053;-53
2022/04/14 01:47:07;;;;;;;3.52;1.07;;;;;;;7.07;65.25;100757.43;1759899;80;21050;-53
2022/04/14 01:49:35;;;;;;;3.20;1.10;;;;;;;7.08;64.99;100746.04;1755475;80;21154;-53
2022/04/14 01:52:03;;;;;;;4.35;1.05;;;;;;;7.11;64.96;100752.84;1745351;80;21592;-53
2022/04/14 01:54:30;;;;;;;2.17;0.68;;;;;;;7.10;64.78;100747.27;1765382;80;21067;-53
2022/04/14 01:56:57;;;;;;;2.77;0.75;;;;;;;7.10;64.83;100751.19;1759769;80;21615;-52
2022/04/14 01:59:23;;;;;;;4.75;1.32;;;;;;;7.11;64.56;100741.94;1754550;80;21086;-53
2022/04/14 02:01:50;;;;;;;3.27;0.72;;;;;;;7.18;64.47;100739.80;1756529;80;21145;-53
2022/04/14 02:04:17;;;;;;;3.12;0.90;;;;;;;7.21;64.21;100741.75;1753060;80;21101;-53
2022/04/14 02:06:44;;;;;;;2.40;0.68;;;;;;;7.21;64.08;100743.51;1750290;81;21065;-53
2022/04/14 02:09:12;;;;;;;3.95;0.88;;;;;;;7.18;64.05;100743.25;1754916;81;21080;-53
2022/04/14 02:11:39;;;;;;;3.85;1.00;;;;;;;7.20;63.95;100753.62;1751862;80;21558;-53
2022/04/14 02:14:06;;;;;;;4.03;1.00;;;;;;;7.24;63.79;100759.87;1751065;81;21222;-53
2022/04/14 02:16:33;;;;;;;2.80;0.80;;;;;;;7.21;63.49;100761.39;1761141;80;21071;-53
2022/04/14 02:19:00;;;;;;;4.35;1.10;;;;;;;7.23;63.50;100764.75;1766492;80;21583;-53
2022/04/14 02:21:26;;;;;;;2.95;0.70;;;;;;;7.19;63.38;100759.30;1762600;80;21054;-54
2022/04/14 02:23:54;;;;;;;2.52;0.60;;;;;;;7.20;63.53;100763.62;1757503;80;21055;-53
2022/04/14 02:26:21;;;;;;;3.25;0.70;;;;;;;7.21;63.31;100765.76;1762533;80;21146;-53
2022/04/14 02:28:49;;;;;;;3.83;0.93;;;;;;;7.20;63.12;100777.18;1757243;80;22197;-53
2022/04/14 02:31:15;;;;;;;3.10;0.90;;;;;;;7.22;63.15;100775.30;1759681;80;21610;-53
2022/04/14 02:33:42;;;;;;;4.83;0.80;;;;;;;7.18;63.34;100775.95;1758826;80;21032;-54
2022/04/14 02:36:09;;;;;;;3.62;1.20;;;;;;;7.15;63.37;100770.91;1762485;80;21040;-54
2022/04/14 02:38:35;;;;;;;3.95;0.80;;;;;;;7.15;63.30;100764.84;1756717;80;21145;-53
2022/04/14 02:41:03;;;;;;;3.67;0.88;;;;;;;7.18;63.14;100771.20;1758207;80;21041;-53
2022/04/14 02:43:30;;;;;;;2.77;0.70;;;;;;;7.19;63.09;100778.94;1764230;80;21290;-54
2022/04/14 02:45:59;;;;;;;2.47;0.70;;;;;;;7.15;62.96;100774.83;1759777;80;21072;-53
2022/04/14 02:48:26;;;;;;;3.17;0.80;;;;;;;7.13;63.03;100778.02;1759861;80;21127;-52
2022/04/14 02:50:53;;;;;;;1.92;0.55;;;;;;;7.08;63.03;100774.83;1756737;80;21149;-52
2022/04/14 02:53:20;;;;;;;2.80;0.93;;;;;;;7.08;63.10;100777.44;1762223;80;21020;-52
2022/04/14 02:55:48;;;;;;;2.35;0.70;;;;;;;7.12;62.86;100769.77;1756453;80;21069;-52
2022/04/14 02:58:14;;;;;;;4.03;1.05;;;;;;;7.15;62.80;100772.69;1754640;80;21036;-52
2022/04/14 03:00:41;;;;;;;2.98;0.55;;;;;;;7.13;62.50;100770.61;1761986;80;21071;-52
2022/04/14 03:03:08;;;;;;;3.52;0.85;;;;;;;7.13;62.60;100780.63;1755794;80;22089;-52
2022/04/14 03:05:36;;;;;;;2.70;0.70;;;;;;;7.07;62.62;100780.50;1761145;80;21081;-52
2022/04/14 03:08:03;;;;;;;2.72;0.70;;;;;;;7.11;62.53;100782.95;1758214;80;21077;-52
2022/04/14 03:10:29;;;;;;;2.45;0.90;;;;;;;7.13;62.31;100779.31;1763327;80;21045;-52
2022/04/14 03:12:57;;;;;;;3.25;0.80;;;;;;;7.13;62.15;100788.48;1762413;80;21462;-52
2022/04/14 03:15:25;;;;;;;2.58;0.70;;;;;;;7.13;62.16;100783.69;1758208;80;21147;-52
2022/04/14 03:17:53;;;;;;;2.52;0.57;;;;;;;7.07;61.97;100784.43;1756758;80;21094;-53
2022/04/14 03:20:21;;;;;;;2.80;0.95;;;;;;;7.04;61.93;100779.84;1756810;79;21345;-52
2022/04/14 03:22:49;;;;;;;4.40;0.80;;;;;;;7.01;61.89;100783.95;1760044;80;20999;-53
2022/04/14 03:25:15;;;;;;;3.05;0.70;;;;;;;7.04;61.81;100779.84;1766399;80;21055;-53
2022/04/14 03:27:42;;;;;;;2.30;0.70;;;;;;;7.04;61.90;100787.70;1747995;80;21224;-53
2022/04/14 03:30:10;;;;;;;4.35;0.70;;;;;;;7.04;61.88;100787.25;1756259;80;21499;-53
2022/04/14 03:32:46;;;;;;;4.47;0.78;;;;;;;7.02;61.81;100786.48;1759603;80;22216;-53
2022/04/14 03:35:13;;;;;;;2.17;0.57;;;;;;;7.00;61.74;100793.58;1760194;80;21059;-52
2022/04/14 03:37:40;;;;;;;1.62;0.40;;;;;;;7.06;61.86;100802.83;1760935;80;21940;-53
2022/04/14 03:40:09;;;;;;;2.95;0.85;;;;;;;7.10;61.72;100809.59;1760237;80;22864;-53
2022/04/14 03:42:35;;;;;;;1.70;0.62;;;;;;;7.15;61.70;100806.71;1761151;80;21823;-53
2022/04/14 03:45:05;;;;;;;2.58;1.00;;;;;;;7.16;61.47;100813.16;1761561;80;21086;-53
2022/04/14 03:47:32;;;;;;;4.35;0.70;;;;;;;7.16;61.28;100810.55;1758495;80;21109;-52
2022/04/14 03:50:01;;;;;;;2.27;0.65;;;;;;;7.17;61.36;100802.22;1755682;80;21050;-53
2022/04/14 03:52:29;;;;;;;4.05;0.70;;;;;;;7.14;61.25;100808.46;1755403;80;21126;-52
2022/04/14 03:54:56;;;;;;;2.50;1.05;;;;;;;7.17;61.53;100804.84;1764323;80;21016;-52
2022/04/14 03:57:25;;;;;;;2.77;0.80;;;;;;;7.21;61.45;100813.73;1760684;80;20978;-52
2022/04/14 03:59:51;;;;;;;3.70;0.98;;;;;;;7.22;61.00;100803.62;1764922;80;21079;-52
2022/04/14 04:02:19;;;;;;;3.22;0.95;;;;;;;7.24;61.12;100816.14;1760217;80;21122;-52
2022/04/14 04:04:45;;;;;;;3.55;0.78;;;;;;;7.24;61.25;100818.77;1759029;80;21302;-52
2022/04/14 04:07:12;;;;;;;3.05;0.90;;;;;;;7.21;61.37;100815.48;1760526;80;21050;-52
2022/04/14 04:09:40;;;;;;;4.00;1.02;;;;;;;7.21;61.34;100820.28;1757468;80;21023;-52
2022/04/14 04:12:09;;;;;;;5.12;0.80;;;;;;;7.25;61.28;100811.77;1766481;80;21055;-52
2022/04/14 04:14:37;;;;;;;2.58;0.80;;;;;;;7.29;60.70;100817.19;1759098;80;21106;-52
2022/04/14 04:17:04;;;;;;;3.60;1.27;;;;;;;7.35;60.73;100822.07;1757861;80;22019;-52
2022/04/14 04:19:33;;;;;;;2.80;0.85;;;;;;;7.35;60.74;100818.14;1757742;81;21063;-52
2022/04/14 04:21:59;;;;;;;4.15;0.70;;;;;;;7.38;60.66;100819.72;1760514;80;21020;-52
2022/04/14 04:24:28;;;;;;;3.02;0.90;;;;;;;7.37;60.59;100820.67;1757840;80;21083;-52
2022/04/14 04:26:55;;;;;;;2.55;0.80;;;;;;;7.34;60.29;100825.61;1759062;81;21063;-52
2022/04/14 04:29:21;;;;;;;3.58;0.90;;;;;;;7.36;60.46;100820.28;1751723;80;21132;-52
2022/04/14 04:31:48;;;;;;;3.12;0.82;;;;;;;7.38;60.36;100815.34;1757132;80;21102;-52
2022/04/14 04:34:15;;;;;;;4.62;0.95;;;;;;;7.45;60.25;100822.37;1755085;81;21700;-52
2022/04/14 04:36:43;;;;;;;5.20;0.95;;;;;;;7.47;60.13;100830.97;1751589;80;21058;-52
2022/04/14 04:39:09;;;;;;;2.37;0.70;;;;;;;7.44;60.09;100826.73;1752857;81;21584;-52
2022/04/14 04:41:36;;;;;;;2.25;0.75;;;;;;;7.43;60.15;100829.45;1755590;81;21225;-52
2022/04/14 04:44:04;;;;;;;3.77;0.78;;;;;;;7.42;60.14;100833.02;1750664;80;21038;-52
2022/04/14 04:46:32;;;;;;;2.45;0.80;;;;;;;7.40;60.28;100838.34;1749421;80;21045;-52
2022/04/14 04:49:00;;;;;;;2.67;0.65;;;;;;;7.42;60.22;100836.95;1738380;80;21066;-51
2022/04/14 04:51:28;;;;;;;2.55;0.70;;;;;;;7.46;59.90;100841.05;1751797;80;20999;-52
2022/04/14 04:53:55;;;;;;;2.45;0.85;;;;;;;7.50;59.77;100832.54;1752190;80;21136;-51
2022/04/14 04:56:22;;;;;;;5.90;0.75;;;;;;;7.51;59.58;100839.00;1739891;80;21030;-51
2022/04/14 04:58:50;;;;;;;4.40;0.90;;;;;;;7.50;59.35;100843.88;1749639;80;21480;-51
2022/04/14 05:01:16;;;;;;;3.92;0.60;;;;;;;7.49;59.38;100841.35;1766846;81;21113;-51
2022/04/14 05:03:44;;;;;;;3.30;0.75;;;;;;;7.43;59.47;100850.39;1757623;80;21473;-51
2022/04/14 05:06:10;;;;;;;5.08;0.90;;;;;;;7.40;59.45;100846.67;1754370;81;21111;-51
2022/04/14 05:08:36;;;;;;;2.20;0.57;;;;;;;7.42;59.59;100850.04;1749377;80;21027;-51
2022/04/14 05:11:04;;;;;;;2.30;0.60;;;;;;;7.49;59.55;100853.13;1747932;80;21011;-52
2022/04/14 05:13:32;;;;;;;3.25;0.80;;;;;;;7.53;59.55;100850.25;1738677;81;21575;-52
2022/04/14 05:15:58;;;;;;;3.20;0.98;;;;;;;7.55;59.31;100851.47;1738870;80;21766;-52
2022/04/14 05:18:25;;;;;;;4.15;0.75;;;;;;;7.58;59.31;100856.05;1741087;81;21264;-52
2022/04/14 05:20:52;;;;;;;2.40;0.70;;;;;;;7.62;59.54;100858.84;1737689;81;21818;-51
2022/04/14 05:23:18;;;;;;;1.98;0.47;;;;;;;7.61;59.24;100860.25;1750698;80;21132;-52
2022/04/14 05:25:45;;;;;;;1.92;0.80;;;;;;;7.61;59.14;100853.70;1767480;81;21066;-53
2022/04/14 05:28:11;;;;;;;2.35;0.60;;;;;;;7.63;59.39;100859.68;1753807;80;21092;-52
2022/04/14 05:30:39;;;;;;;3.45;0.88;;;;;;;7.64;59.01;100864.00;1738460;81;21023;-52
2022/04/14 05:33:10;;;;;;;3.58;1.00;;;;;;;7.71;59.06;100861.38;1747083;80;21027;-52
2022/04/14 05:35:35;;;;;;;4.42;0.70;;;;;;;7.70;58.28;100866.70;1746405;80;21094;-51
2022/04/14 05:38:02;;;;;;;3.27;0.85;;;;;;;7.74;58.85;100865.13;1751082;80;21004;-51
2022/04/14 05:40:28;;;;;;;2.20;0.80;;;;;;;7.75;58.65;100868.58;1749681;80;21094;-52
2022/04/14 05:42:55;;;;;;;3.67;0.90;;;;;;;7.76;58.85;100860.63;1740698;81;21161;-52
2022/04/14 05:45:23;;;;;;;3.30;0.80;;;;;;;7.74;58.52;100868.22;1703574;82;21553;-51
2022/04/14 05:47:50;;;;;;;2.25;0.60;;;;;;;7.76;58.66;100875.52;1681284;84;21095;-51
2022/04/14 05:50:16;;;;;;;5.08;0.82;;;;;;;7.75;58.85;100869.44;1723925;82;21040;-52
2022/04/14 05:52:44;;;;;;;2.10;0.60;;;;;;;7.81;58.75;100870.84;1711564;82;21032;-52
2022/04/14 05:55:12;;;;;;;2.42;0.70;;;;;;;7.86;58.18;100871.39;1717403;82;21104;-52
2022/04/14 05:57:39;;;;;;;2.65;0.88;;;;;;;7.87;58.00;100877.02;1713711;82;21078;-52
2022/04/14 06:00:08;;;;;;;3.47;0.78;;;;;;;7.80;57.40;100880.92;1758996;80;20995;-52
2022/04/14 06:02:34;;;;;;;3.12;0.85;;;;;;;7.80;57.44;100870.45;1754070;80;21091;-52
2022/04/14 06:05:01;;;;;;;2.45;0.70;;;;;;;7.77;57.23;100879.83;1740621;81;21118;-53
2022/04/14 06:07:27;;;;;;;3.50;0.85;;;;;;;7.75;57.41;100877.75;1743701;79;21149;-53
2022/04/14 06:09:55;;;;;;;2.75;0.90;;;;;;;7.71;57.22;100878.88;1751047;80;21049;-53
2022/04/14 06:12:21;;;;;;;2.52;0.78;;;;;;;7.62;57.29;100881.11;1755686;80;21111;-53
2022/04/14 06:14:50;;;;;;;3.77;1.00;;;;;;;7.61;57.32;100876.80;1746211;80;21546;-53
2022/04/14 06:17:18;;;;;;;2.70;0.80;;;;;;;7.60;57.39;100879.05;1750298;80;21507;-53
2022/04/14 06:19:45;;;;;;;4.03;1.07;;;;;;;7.62;57.40;100886.34;1759707;80;21140;-53
2022/04/14 06:22:12;;;;;;;4.12;1.02;;;;;;;7.71;57.33;100881.02;1759315;80;21100;-53
2022/04/14 06:24:39;;;;;;;6.55;1.15;;;;;;;7.75;57.14;100882.98;1759709;80;21036;-52
2022/04/14 06:27:07;;;;;;;1.95;0.53;;;;;;;7.74;56.75;100882.62;1757993;80;22556;-53
2022/04/14 06:29:33;;;;;;;3.17;0.80;;;;;;;7.80;57.17;100884.86;1761935;80;21076;-53
2022/04/14 06:32:00;;;;;;;3.47;0.62;;;;;;;7.77;56.82;100892.45;1760885;80;21157;-53
2022/04/14 06:34:26;;;;;;;3.05;0.72;;;;;;;7.73;56.78;100885.72;1763598;80;21044;-53
2022/04/14 06:36:53;;;;;;;2.80;0.85;;;;;;;7.70;56.86;100878.49;1749437;80;21043;-53
2022/04/14 06:39:20;;;;;;;4.25;0.85;;;;;;;7.70;57.09;100892.89;1765314;80;21130;-53
2022/04/14 06:41:46;;;;;;;4.33;0.78;;;;;;;7.68;57.12;100886.91;1756055;80;21041;-53
2022/04/14 06:44:13;;;;;;;3.87;0.88;;;;;;;7.70;57.41;100887.66;1759350;80;21177;-52
2022/04/14 06:46:39;;;;;;;3.00;0.80;;;;;;;7.69;57.14;100893.38;1754340;80;21063;-53
2022/04/14 06:49:06;;;;;;;3.02;1.07;;;;;;;7.79;56.98;100876.64;1759279;79;21493;-53
2022/04/14 06:51:34;;;;;;;3.22;0.60;;;;;;;7.83;57.19;100893.84;1766171;80;21058;-53
2022/04/14 06:54:01;;;;;;;3.35;0.93;;;;;;;7.84;56.94;100892.09;1746423;80;21693;-53
2022/04/14 06:56:28;;;;;;;2.80;0.95;;;;;;;7.84;56.74;100889.47;1750923;80;21164;-52
2022/04/14 06:58:55;;;;;;;3.83;0.95;;;;;;;7.84;56.95;100892.92;1758315;80;21029;-53
2022/04/14 07:01:23;;;;;;;3.05;0.95;;;;;;;7.81;56.88;100891.31;1751563;80;21544;-53
2022/04/14 07:03:50;;;;;;;2.75;0.80;;;;;;;7.79;56.80;100886.64;1758809;79;21243;-51
2022/04/14 07:06:16;;;;;;;2.90;0.88;;;;;;;7.81;56.80;100894.41;1762875;80;21400;-53
2022/04/14 07:08:43;;;;;;;2.67;0.75;;;;;;;7.80;56.83;100900.13;1743436;80;21409;-53
2022/04/14 07:11:10;;;;;;;4.03;0.90;;;;;;;7.75;56.88;100892.16;1744194;80;21575;-53
2022/04/14 07:13:38;;;;;;;3.52;0.82;;;;;;;7.80;56.97;100899.27;1766987;80;21711;-53
2022/04/14 07:16:05;;;;;;;3.75;0.85;;;;;;;7.85;56.99;100893.31;1757453;80;21516;-53
2022/04/14 07:18:34;;;;;;;2.05;0.65;;;;;;;7.90;56.80;100900.42;1743817;80;20995;-53
2022/04/14 07:21:00;;;;;;;2.90;1.00;;;;;;;7.90;56.61;100894.32;1745516;80;21516;-53
2022/04/14 07:23:28;;;;;;;2.52;0.90;;;;;;;7.86;56.42;100898.91;1752606;80;21526;-51
2022/04/14 07:25:57;;;;;;;3.95;0.80;;;;;;;7.82;56.52;100897.42;1757414;80;21070;-51
2022/04/14 07:28:23;;;;;;;2.15;0.90;;;;;;;7.74;56.83;100899.66;1763340;80;21113;-52
2022/04/14 07:30:51;;;;;;;3.15;0.82;;;;;;;7.70;56.91;100891.14;1763785;80;21034;-52
2022/04/14 07:33:18;;;;;;;2.52;0.80;;;;;;;7.70;57.19;100895.52;1760585;80;21153;-52
2022/04/14 07:35:45;;;;;;;4.00;0.50;;;;;;;7.69;57.33;100903.02;1760328;80;21066;-52
2022/04/14 07:38:13;;;;;;;2.75;0.82;;;;;;;7.74;57.00;100894.42;1768798;80;21320;-52
2022/04/14 07:40:41;;;;;;;2.72;0.72;;;;;;;7.74;56.62;100895.25;1762349;80;21104;-52
2022/04/14 07:43:08;;;;;;;4.17;0.93;;;;;;;7.79;56.75;100898.91;1765414;80;21019;-51
2022/04/14 07:45:35;;;;;;;3.70;1.02;;;;;;;7.83;56.87;100903.02;1750816;80;21161;-51
2022/04/14 07:48:04;;;;;;;8.10;1.00;;;;;;;7.84;56.54;100903.41;1761141;80;21514;-52
2022/04/14 07:50:32;;;;;;;6.50;1.10;;;;;;;7.84;56.83;100894.23;1751969;80;21083;-52
2022/04/14 07:53:00;;;;;;;3.70;1.07;;;;;;;7.84;56.75;100895.55;1767903;80;21013;-52
2022/04/14 07:55:30;;;;;;;4.05;0.90;;;;;;;7.80;56.60;100891.41;1758029;80;21078;-51
2022/04/14 07:58:04;;;;;;;4.17;1.00;;;;;;;7.79;56.89;100900.22;1754637;80;21120;-51
2022/04/14 08:00:31;;;;;;;2.43;0.73;;;;;;;7.75;56.87;100889.09;1762464;80;21074;-51
2022/04/14 08:03:00;;;;;;;3.33;0.98;;;;;;;7.83;57.14;100902.19;1762470;80;21034;-51
2022/04/14 08:05:44;;;;;;;2.60;0.78;;;;;;;7.87;56.79;100896.67;1765145;80;21086;-51
2022/04/14 08:08:19;;;;;;;3.40;0.85;;;;;;;7.96;57.00;100901.34;1761745;80;21066;-51
2022/04/14 08:10:48;;;;;;;2.92;0.70;;;;;;;8.00;56.27;100896.31;1759142;80;21133;-52
2022/04/14 08:13:15;;;;;;;2.45;0.80;;;;;;;8.04;56.60;100893.02;1763677;79;21027;-52
2022/04/14 08:15:42;;;;;;;2.95;0.80;;;;;;;8.07;56.63;100901.15;1764344;80;21030;-52
2022/04/14 08:18:09;;;;;;;4.78;1.12;;;;;;;8.11;57.03;100902.19;1752897;80;21000;-52
2022/04/14 08:20:39;;;;;;;3.60;0.95;;;;;;;8.11;55.98;100894.80;1749165;81;21059;-53
2022/04/14 08:23:06;;;;;;;5.30;1.12;;;;;;;8.17;55.96;100900.98;1751860;81;21098;-52
2022/04/14 08:25:35;;;;;;;4.20;1.05;;;;;;;8.12;55.67;100893.84;1756345;80;21099;-51
2022/04/14 08:28:05;;;;;;;4.37;1.47;;;;;;;8.11;56.23;100900.88;1753253;81;21618;-52
2022/04/14 08:30:33;;;;;;;2.10;0.50;;;;;;;8.18;56.71;100900.03;1748026;80;21018;-52
2022/04/14 08:33:05;;;;;;;2.12;0.68;;;;;;;8.22;55.97;100906.79;1757594;81;21648;-52
2022/04/14 08:35:33;;;;;;;4.58;1.35;;;;;;;8.28;56.10;100899.00;1747671;80;21770;-51
2022/04/14 08:38:04;;;;;;;4.50;1.45;;;;;;;8.32;55.99;100905.72;1753492;80;21039;-52
2022/04/14 08:40:35;;;;;;;3.67;1.10;;;;;;;8.35;55.80;100906.41;1750033;80;21063;-52
2022/04/14 08:43:04;;;;;;;3.10;0.98;;;;;;;8.43;55.84;100903.31;1760558;81;21039;-52
2022/04/14 08:45:46;;;;;;;6.67;1.02;;;;;;;8.48;55.30;100892.55;1755532;81;21750;-51
2022/04/14 08:48:17;;;;;;;3.02;1.00;;;;;;;8.56;55.52;100904.70;1751579;80;21911;-52
2022/04/14 08:50:46;;;;;;;4.00;1.07;;;;;;;8.59;55.10;100897.96;1733813;81;21534;-52
2022/04/14 08:53:13;;;;;;;3.50;1.02;;;;;;;8.62;54.89;100893.80;1700000;81;21027;-51
2022/04/14 08:55:42;;;;;;;3.75;1.10;;;;;;;8.65;54.69;100892.78;1756567;80;21600;-52
2022/04/14 08:58:14;;;;;;;2.50;0.85;;;;;;;8.68;54.31;100892.59;1750972;80;21079;-52
2022/04/14 09:00:41;;;;;;;2.70;0.90;;;;;;;8.70;54.01;100903.34;1737159;81;21142;-51
2022/04/14 09:03:07;;;;;;;4.40;1.27;;;;;;;8.72;53.85;100890.98;1746293;81;21059;-52
2022/04/14 09:05:34;;;;;;;2.83;0.80;;;;;;;8.75;53.46;100891.25;1740158;81;21045;-52
2022/04/14 09:08:03;;;;;;;2.80;0.72;;;;;;;8.79;53.48;100894.52;1753392;81;21171;-52
2022/04/14 09:10:30;;;;;;;2.25;0.72;;;;;;;8.80;52.63;100894.89;1754326;81;21046;-53
2022/04/14 09:12:56;;;;;;;1.62;0.47;;;;;;;8.87;52.61;100896.17;1758011;80;21153;-53
2022/04/14 09:15:23;;;;;;;2.22;0.72;;;;;;;8.87;52.40;100895.70;1755567;81;21006;-53
2022/04/14 09:17:49;;;;;;;2.40;0.80;;;;;;;8.90;52.03;100896.81;1748098;80;21360;-53
2022/04/14 09:20:34;;;;;;;3.30;0.88;;;;;;;8.86;51.37;100895.34;1749052;80;21087;-52
2022/04/14 09:23:21;;;;;;;2.33;0.55;;;;;;;8.87;51.03;100900.11;1758018;80;21090;-52
2022/04/14 09:26:11;;;;;;;2.33;0.72;;;;;;;8.86;50.98;100893.17;1757345;80;20995;-52
2022/04/14 09:28:39;;;;;;;3.67;0.72;;;;;;;8.84;51.19;100897.67;1751543;80;21122;-52
2022/04/14 09:31:11;;;;;;;2.20;0.50;;;;;;;8.86;51.26;100899.28;1743024;80;21052;-52
2022/04/14 09:33:48;;;;;;;2.67;0.80;;;;;;;8.88;50.74;100897.39;1761491;80;21548;-51
2022/04/14 09:36:17;;;;;;;2.27;0.65;;;;;;;8.93;50.91;100890.54;1744618;80;21047;-51
2022/04/14 09:38:59;;;;;;;2.52;0.70;;;;;;;9.00;50.48;100890.50;1742496;80;21094;-51
2022/04/14 09:41:41;;;;;;;2.92;0.90;;;;;;;9.11;50.39;100885.84;1757756;80;21520;-52
2022/04/14 09:44:11;;;;;;;3.22;0.82;;;;;;;9.21;50.09;100890.02;1762551;80;21074;-51
2022/04/14 09:46:47;;;;;;;6.37;0.88;;;;;;;9.31;50.31;100885.84;1759584;80;21027;-52
2022/04/14 09:49:16;;;;;;;3.22;0.70;;;;;;;9.37;49.79;100882.81;1759332;80;26747;-51
2022/04/14 09:51:45;;;;;;;3.40;0.70;;;;;;;9.42;49.44;100882.03;1752641;80;21250;-52
2022/04/14 09:54:18;;;;;;;3.92;1.12;;;;;;;9.50;48.35;100881.53;1741783;80;21137;-51
2022/04/14 09:56:54;;;;;;;4.53;1.00;;;;;;;9.56;48.52;100885.03;1762113;80;21043;-52
2022/04/14 09:59:23;;;;;;;2.67;0.70;;;;;;;9.60;48.41;100883.89;1767250;80;21042;-52
2022/04/14 10:02:15;;;;;;;3.12;0.68;;;;;;;9.71;47.94;100877.06;1750323;80;21153;-51
2022/04/14 10:04:46;;;;;;;2.72;0.70;;;;;;;9.79;47.51;100876.90;1770642;80;21801;-51
2022/04/14 10:07:18;;;;;;;2.22;0.70;;;;;;;9.89;46.74;100880.22;1760261;80;21599;-51
2022/04/14 10:09:55;;;;;;;1.57;0.50;;;;;;;9.99;47.48;100877.32;1747591;80;21465;-51
2022/04/14 10:12:24;;;;;;;3.80;0.80;;;;;;;10.06;47.10;100881.67;1755381;80;21947;-52
2022/04/14 10:15:08;;;;;;;3.30;0.40;;;;;;;10.13;46.67;100881.13;1766650;80;21579;-52
2022/04/14 10:17:40;;;;;;;2.27;0.60;;;;;;;10.14;46.47;100874.92;1761130;80;21141;-53
2022/04/14 10:20:09;;;;;;;1.87;0.55;;;;;;;10.17;45.69;100863.33;1753232;80;21138;-52
2022/04/14 10:22:38;;;;;;;2.10;0.60;;;;;;;10.22;44.75;100873.91;1743872;80;21137;-52
2022/04/14 10:25:07;;;;;;;2.33;0.57;;;;;;;10.29;44.41;100863.80;1760012;80;20996;-53
2022/04/14 10:27:36;;;;;;;1.65;0.47;;;;;;;10.36;44.52;100859.80;1760795;80;21107;-52
2022/04/14 10:32:56;;;;;;;2.10;0.60;;;;;;;10.46;43.60;100876.26;1786390;78;23676;-52
2022/04/14 10:35:26;;;;;;;1.87;0.65;;;;;;;10.50;42.85;100877.22;1742179;80;20987;-52
2022/04/14 10:38:08;;;;;;;1.87;0.50;;;;;;;10.60;41.96;100872.14;1755205;80;21067;-53
2022/04/14 10:40:35;;;;;;;2.60;0.47;;;;;;;10.66;40.88;100872.16;1748283;80;21605;-51
2022/04/14 10:43:07;;;;;;;2.52;0.60;;;;;;;10.74;40.80;100881.20;1713602;81;21037;-51
2022/04/14 10:45:51;;;;;;;1.60;0.35;;;;;;;10.80;40.36;100877.27;1712818;82;20982;-52
2022/04/14 10:48:31;;;;;;;3.17;0.57;;;;;;;10.89;39.70;100876.62;1720268;81;21081;-52
2022/04/14 10:51:27;;;;;;;2.55;0.53;;;;;;;10.93;38.98;100870.16;1712172;82;22101;-51
2022/04/14 10:54:09;;;;;;;1.32;0.40;;;;;;;11.02;38.66;100876.53;1713407;83;21051;-52
2022/04/14 10:56:42;;;;;;;4.50;0.53;;;;;;;11.12;37.48;100876.70;1716118;82;21071;-51
2022/04/14 10:59:14;;;;;;;3.98;0.85;;;;;;;11.20;37.54;100868.23;1714818;82;21049;-53
2022/04/14 11:01:51;;;;;;;1.75;0.40;;;;;;;11.28;38.17;100875.91;1712902;82;21042;-52
2022/04/14 11:04:43;;;;;;;1.20;0.30;;;;;;;11.38;38.03;100863.34;1708692;82;21165;-53
2022/04/14 11:07:17;;;;;;;1.85;0.50;;;;;;;11.45;37.53;100863.27;1713426;83;21027;-52
2022/04/14 11:09:57;;;;;;;1.22;0.37;;;;;;;11.47;37.69;100869.25;1715765;81;21188;-51
2022/04/14 11:12:56;;;;;;;1.42;0.40;;;;;;;11.53;38.07;100875.36;1710901;83;21500;-51
2022/04/14 11:15:30;;;;;;;2.02;0.50;;;;;;;11.61;37.99;100876.09;1706751;82;21567;-52
2022/04/14 11:18:06;;;;;;;2.15;0.45;;;;;;;11.75;38.30;100877.21;1715244;83;21068;-52
2022/04/14 11:20:38;;;;;;;2.85;0.50;;;;;;;11.78;37.33;100861.13;1703479;82;21547;-53
2022/04/14 11:23:17;;;;;;;2.77;0.60;;;;;;;11.87;37.49;100860.92;1712375;82;21062;-52
2022/04/14 11:25:53;;;;;;;1.82;0.60;;;;;;;11.92;37.49;100871.11;1705694;83;21344;-51
2022/04/14 11:28:30;;;;;;;1.45;0.40;;;;;;;12.01;37.89;100869.09;1708805;82;21073;-52
2022/04/14 11:31:14;;;;;;;2.40;0.50;;;;;;;12.03;38.13;100877.23;1696921;82;21156;-52
2022/04/14 11:33:46;;;;;;;2.85;0.50;;;;;;;12.15;38.06;100875.42;1671845;83;21013;-51
2022/04/14 11:36:22;;;;;;;6.30;0.72;;;;;;;12.19;37.47;100865.49;1672789;85;21060;-52
2022/04/14 11:39:07;;;;;;;3.30;0.70;;;;;;;12.27;38.28;100869.66;1674440;85;21200;-51
2022/04/14 11:41:50;;;;;;;4.55;0.95;;;;;;;12.31;37.64;100875.06;1733341;81;21140;-52
2022/04/14 11:44:30;;;;;;;1.62;0.60;;;;;;;12.40;37.82;100873.00;1742059;81;20977;-52